JST1337 YMML-YSSY
Flight info
| Callsign | JST1337 |
|---|---|
| Flight time | 1h 6m |
| Altitude | 37000 |
| Route | ML H129 DOSEL Y59 RIVET |
| Aircraft | A320/M-SDE3FGHIRWY/LB1 |
Departure
| Time | 2026-05-04 08:27 |
|---|---|
| Airport | Melbourne Airport (YMML) |
Arrival
| Time | 2026-05-04 09:34 |
|---|---|
| Airport | Sydney Kingsford Smith International Airport (YSSY) |
| Time | Latitude | Longitude | Altitude | Speed | Heading |
|---|---|---|---|---|---|
| 2026-05-04 07:44 | -37.67516 | 144.84836 | 380 ft | 0 kts | 171° |
| 2026-05-04 08:11 | -37.67515 | 144.84836 | 380 ft | 1 kts | 171° |
| 2026-05-04 08:12 | -37.67492 | 144.84831 | 380 ft | 4 kts | 171° |
| 2026-05-04 08:12 | -37.67471 | 144.84827 | 381 ft | 4 kts | 157° |
| 2026-05-04 08:12 | -37.67457 | 144.84808 | 381 ft | 3 kts | 104° |
| 2026-05-04 08:12 | -37.67448 | 144.84781 | 382 ft | 4 kts | 151° |
| 2026-05-04 08:13 | -37.67432 | 144.84780 | 382 ft | 4 kts | 242° |
| 2026-05-04 08:13 | -37.67427 | 144.84809 | 382 ft | 2 kts | 261° |
| 2026-05-04 08:13 | -37.67426 | 144.84810 | 382 ft | 0 kts | 261° |
| 2026-05-04 08:17 | -37.67427 | 144.84810 | 382 ft | 0 kts | 261° |
| 2026-05-04 08:20 | -37.67428 | 144.84796 | 382 ft | 4 kts | 262° |
| 2026-05-04 08:20 | -37.67433 | 144.84749 | 382 ft | 7 kts | 262° |
| 2026-05-04 08:20 | -37.67442 | 144.84674 | 381 ft | 10 kts | 262° |
| 2026-05-04 08:20 | -37.67451 | 144.84589 | 380 ft | 11 kts | 262° |
| 2026-05-04 08:21 | -37.67465 | 144.84471 | 378 ft | 16 kts | 262° |
| 2026-05-04 08:21 | -37.67484 | 144.84314 | 375 ft | 20 kts | 261° |
| 2026-05-04 08:21 | -37.67503 | 144.84167 | 372 ft | 16 kts | 254° |
| 2026-05-04 08:21 | -37.67606 | 144.84136 | 370 ft | 19 kts | 173° |
| 2026-05-04 08:22 | -37.67706 | 144.84154 | 367 ft | 15 kts | 171° |
| 2026-05-04 08:22 | -37.67787 | 144.84169 | 362 ft | 13 kts | 171° |
| 2026-05-04 08:24 | -37.67874 | 144.84107 | 358 ft | 2 kts | 263° |
| 2026-05-04 08:24 | -37.67879 | 144.84064 | 357 ft | 8 kts | 263° |
| 2026-05-04 08:24 | -37.67884 | 144.83981 | 360 ft | 7 kts | 290° |
| 2026-05-04 08:24 | -37.67856 | 144.83964 | 358 ft | 0 kts | 353° |
| 2026-05-04 08:25 | -37.67853 | 144.83964 | 356 ft | 2 kts | 353° |
| 2026-05-04 08:26 | -37.67799 | 144.83954 | 362 ft | 13 kts | 352° |
| 2026-05-04 08:27 | -37.62255 | 144.82863 | 2817 ft | 172 kts | 345° |
| 2026-05-04 08:28 | -37.60997 | 144.82616 | 3182 ft | 192 kts | 345° |
| 2026-05-04 08:28 | -37.59580 | 144.82370 | 3570 ft | 221 kts | 352° |
| 2026-05-04 08:28 | -37.57991 | 144.82880 | 4226 ft | 252 kts | 18° |
| 2026-05-04 08:28 | -37.56395 | 144.83868 | 5178 ft | 259 kts | 19° |
| 2026-05-04 08:29 | -37.54750 | 144.84889 | 5762 ft | 267 kts | 19° |
| 2026-05-04 08:29 | -37.53087 | 144.85920 | 5959 ft | 267 kts | 19° |
| 2026-05-04 08:29 | -37.51416 | 144.86950 | 6008 ft | 267 kts | 19° |
| 2026-05-04 08:31 | -37.40884 | 144.96584 | 6531 ft | 287 kts | 48° |
| 2026-05-04 08:33 | -37.32127 | 145.12058 | 11849 ft | 346 kts | 50° |
| 2026-05-04 08:33 | -37.30723 | 145.14539 | 12613 ft | 351 kts | 50° |
| 2026-05-04 08:35 | -37.20401 | 145.32693 | 17481 ft | 377 kts | 50° |
| 2026-05-04 08:35 | -37.18871 | 145.35373 | 18180 ft | 380 kts | 50° |
| 2026-05-04 08:35 | -37.17850 | 145.37162 | 18574 ft | 382 kts | 50° |
| 2026-05-04 08:35 | -37.16294 | 145.39888 | 19183 ft | 385 kts | 50° |
| 2026-05-04 08:37 | -37.06705 | 145.56617 | 22653 ft | 402 kts | 49° |
| 2026-05-04 08:37 | -37.05064 | 145.59467 | 23222 ft | 405 kts | 49° |
| 2026-05-04 08:37 | -37.03412 | 145.62332 | 23743 ft | 407 kts | 48° |
| 2026-05-04 08:38 | -37.01747 | 145.65218 | 24179 ft | 410 kts | 48° |
| 2026-05-04 08:38 | -37.00072 | 145.68120 | 24615 ft | 413 kts | 47° |
| 2026-05-04 08:38 | -36.98383 | 145.71045 | 25053 ft | 416 kts | 47° |
| 2026-05-04 08:40 | -36.86250 | 145.91990 | 28070 ft | 434 kts | 44° |
| 2026-05-04 08:40 | -36.84467 | 145.95052 | 28491 ft | 437 kts | 44° |
| 2026-05-04 08:40 | -36.82683 | 145.98117 | 28904 ft | 440 kts | 44° |
| 2026-05-04 08:41 | -36.80868 | 146.01232 | 29338 ft | 443 kts | 43° |
| 2026-05-04 08:41 | -36.79047 | 146.04355 | 29750 ft | 446 kts | 43° |
| 2026-05-04 08:41 | -36.77224 | 146.07480 | 30156 ft | 448 kts | 44° |
| 2026-05-04 08:41 | -36.75376 | 146.10646 | 30505 ft | 451 kts | 44° |
| 2026-05-04 08:42 | -36.73520 | 146.13821 | 30823 ft | 455 kts | 44° |
| 2026-05-04 08:42 | -36.71655 | 146.17012 | 31131 ft | 458 kts | 44° |
| 2026-05-04 08:42 | -36.69768 | 146.20234 | 31440 ft | 461 kts | 44° |
| 2026-05-04 08:42 | -36.67869 | 146.23472 | 31759 ft | 465 kts | 44° |
| 2026-05-04 08:43 | -36.65962 | 146.26726 | 32185 ft | 465 kts | 44° |
| 2026-05-04 08:43 | -36.64066 | 146.29960 | 32646 ft | 465 kts | 44° |
| 2026-05-04 08:43 | -36.62149 | 146.33225 | 33047 ft | 465 kts | 44° |
| 2026-05-04 08:43 | -36.60235 | 146.36481 | 33453 ft | 466 kts | 44° |
| 2026-05-04 08:44 | -36.58321 | 146.39728 | 33891 ft | 466 kts | 44° |
| 2026-05-04 08:44 | -36.56399 | 146.42983 | 34282 ft | 467 kts | 44° |
| 2026-05-04 08:46 | -36.42857 | 146.65865 | 36473 ft | 474 kts | 45° |
| 2026-05-04 08:46 | -36.40872 | 146.69207 | 36767 ft | 476 kts | 45° |
| 2026-05-04 08:46 | -36.38903 | 146.72515 | 36987 ft | 477 kts | 45° |
| 2026-05-04 08:47 | -36.34990 | 146.79075 | 37027 ft | 475 kts | 45° |
| 2026-05-04 08:47 | -36.31032 | 146.85688 | 37033 ft | 474 kts | 45° |
| 2026-05-04 08:48 | -36.27140 | 146.92210 | 37044 ft | 473 kts | 45° |
| 2026-05-04 08:48 | -36.23200 | 146.98800 | 37047 ft | 472 kts | 45° |
| 2026-05-04 08:49 | -36.19306 | 147.05274 | 37037 ft | 472 kts | 45° |
| 2026-05-04 08:50 | -36.05558 | 147.28083 | 37065 ft | 472 kts | 44° |
| 2026-05-04 08:51 | -36.01624 | 147.34580 | 37072 ft | 472 kts | 44° |
| 2026-05-04 08:51 | -35.97685 | 147.41068 | 37066 ft | 472 kts | 44° |
| 2026-05-04 08:52 | -35.93749 | 147.47549 | 37082 ft | 471 kts | 44° |
| 2026-05-04 08:52 | -35.89812 | 147.54015 | 37082 ft | 471 kts | 44° |
| 2026-05-04 08:54 | -35.74051 | 147.79788 | 37085 ft | 470 kts | 44° |
| 2026-05-04 08:55 | -35.70112 | 147.86187 | 37088 ft | 470 kts | 44° |
| 2026-05-04 08:55 | -35.66155 | 147.92609 | 37075 ft | 470 kts | 44° |
| 2026-05-04 09:01 | -35.24424 | 148.59663 | 37081 ft | 471 kts | 43° |
| 2026-05-04 09:01 | -35.20423 | 148.66015 | 37065 ft | 471 kts | 43° |
| 2026-05-04 09:02 | -35.16423 | 148.72360 | 37072 ft | 472 kts | 43° |
| 2026-05-04 09:02 | -35.12419 | 148.78705 | 37072 ft | 471 kts | 43° |
| 2026-05-04 09:03 | -35.08413 | 148.85042 | 37087 ft | 471 kts | 43° |
| 2026-05-04 09:03 | -35.04403 | 148.91377 | 36875 ft | 471 kts | 43° |
| 2026-05-04 09:03 | -35.02403 | 148.94534 | 36628 ft | 470 kts | 43° |
| 2026-05-04 09:04 | -35.00404 | 148.97687 | 36373 ft | 470 kts | 43° |
| 2026-05-04 09:04 | -34.98406 | 149.00830 | 36130 ft | 469 kts | 43° |
| 2026-05-04 09:04 | -34.96404 | 149.03975 | 35885 ft | 469 kts | 43° |
| 2026-05-04 09:04 | -34.94379 | 149.07155 | 35624 ft | 467 kts | 43° |
| 2026-05-04 09:05 | -34.92426 | 149.10222 | 35388 ft | 464 kts | 43° |
| 2026-05-04 09:05 | -34.90449 | 149.13322 | 35132 ft | 462 kts | 42° |
| 2026-05-04 09:05 | -34.88483 | 149.16400 | 34896 ft | 459 kts | 42° |
| 2026-05-04 09:05 | -34.86531 | 149.19454 | 34664 ft | 457 kts | 42° |
| 2026-05-04 09:06 | -34.84586 | 149.22500 | 34328 ft | 454 kts | 42° |
| 2026-05-04 09:07 | -34.71736 | 149.44133 | 30784 ft | 477 kts | 53° |
| 2026-05-04 09:08 | -34.70164 | 149.47720 | 30281 ft | 486 kts | 53° |
| 2026-05-04 09:08 | -34.68579 | 149.51363 | 29705 ft | 487 kts | 54° |
| 2026-05-04 09:08 | -34.67005 | 149.54995 | 29229 ft | 485 kts | 54° |
| 2026-05-04 09:08 | -34.65438 | 149.58609 | 28732 ft | 481 kts | 54° |
| 2026-05-04 09:09 | -34.63884 | 149.62188 | 28241 ft | 477 kts | 54° |
| 2026-05-04 09:09 | -34.62341 | 149.65736 | 27780 ft | 473 kts | 54° |
| 2026-05-04 09:09 | -34.60806 | 149.69251 | 27300 ft | 470 kts | 54° |
| 2026-05-04 09:09 | -34.59274 | 149.72743 | 26823 ft | 467 kts | 54° |
| 2026-05-04 09:10 | -34.57751 | 149.76205 | 26340 ft | 464 kts | 54° |
| 2026-05-04 09:10 | -34.56236 | 149.79643 | 25863 ft | 460 kts | 53° |
| 2026-05-04 09:10 | -34.54731 | 149.83052 | 25354 ft | 456 kts | 53° |
| 2026-05-04 09:10 | -34.53240 | 149.86430 | 25095 ft | 454 kts | 53° |
| 2026-05-04 09:11 | -34.51753 | 149.89793 | 25039 ft | 452 kts | 53° |
| 2026-05-04 09:11 | -34.50266 | 149.93156 | 24861 ft | 453 kts | 54° |
| 2026-05-04 09:11 | -34.48770 | 149.96534 | 23928 ft | 457 kts | 54° |
| 2026-05-04 09:11 | -34.47286 | 149.99895 | 23557 ft | 446 kts | 54° |
| 2026-05-04 09:12 | -34.45839 | 150.03183 | 22978 ft | 438 kts | 54° |
| 2026-05-04 09:12 | -34.44413 | 150.06416 | 22148 ft | 436 kts | 54° |
| 2026-05-04 09:14 | -34.33917 | 150.29972 | 17813 ft | 452 kts | 56° |
| 2026-05-04 09:14 | -34.32433 | 150.33305 | 17288 ft | 448 kts | 56° |
| 2026-05-04 09:14 | -34.30958 | 150.36607 | 16747 ft | 444 kts | 56° |
| 2026-05-04 09:14 | -34.29495 | 150.39876 | 16217 ft | 440 kts | 56° |
| 2026-05-04 09:15 | -34.28051 | 150.43107 | 15706 ft | 431 kts | 56° |
| 2026-05-04 09:15 | -34.26666 | 150.46222 | 15556 ft | 411 kts | 56° |
| 2026-05-04 09:15 | -34.25346 | 150.49200 | 15433 ft | 392 kts | 56° |
| 2026-05-04 09:15 | -34.24084 | 150.52041 | 15304 ft | 375 kts | 56° |
| 2026-05-04 09:17 | -34.15017 | 150.72186 | 10810 ft | 314 kts | 56° |
| 2026-05-04 09:18 | -34.14002 | 150.74453 | 10416 ft | 302 kts | 56° |
| 2026-05-04 09:18 | -34.13033 | 150.76611 | 10062 ft | 289 kts | 55° |
| 2026-05-04 09:18 | -34.12414 | 150.78046 | 9833 ft | 284 kts | 60° |
| 2026-05-04 09:18 | -34.12084 | 150.81282 | 9347 ft | 309 kts | 96° |
| 2026-05-04 09:19 | -34.12789 | 150.83753 | 8965 ft | 313 kts | 111° |
| 2026-05-04 09:19 | -34.13719 | 150.86136 | 8509 ft | 313 kts | 112° |
| 2026-05-04 09:19 | -34.14666 | 150.88492 | 8200 ft | 311 kts | 112° |
| 2026-05-04 09:19 | -34.15307 | 150.90078 | 7986 ft | 310 kts | 113° |
| 2026-05-04 09:20 | -34.16250 | 150.92406 | 7664 ft | 308 kts | 113° |
| 2026-05-04 09:20 | -34.17191 | 150.94728 | 7351 ft | 307 kts | 113° |
| 2026-05-04 09:20 | -34.18131 | 150.97043 | 7033 ft | 306 kts | 113° |
| 2026-05-04 09:20 | -34.19066 | 150.99341 | 6716 ft | 305 kts | 113° |
| 2026-05-04 09:21 | -34.19998 | 151.01635 | 6406 ft | 303 kts | 113° |
| 2026-05-04 09:21 | -34.20897 | 151.03924 | 6070 ft | 300 kts | 106° |
| 2026-05-04 09:21 | -34.21220 | 151.06335 | 5850 ft | 284 kts | 85° |
| 2026-05-04 09:21 | -34.21208 | 151.08637 | 5710 ft | 264 kts | 83° |
| 2026-05-04 09:22 | -34.21031 | 151.10788 | 5219 ft | 254 kts | 66° |
| 2026-05-04 09:22 | -34.20495 | 151.12816 | 4602 ft | 257 kts | 75° |
| 2026-05-04 09:22 | -34.20362 | 151.14925 | 4316 ft | 249 kts | 82° |
| 2026-05-04 09:22 | -34.20320 | 151.16999 | 3863 ft | 245 kts | 82° |
| 2026-05-04 09:23 | -34.20024 | 151.18977 | 3388 ft | 234 kts | 63° |
| 2026-05-04 09:23 | -34.19327 | 151.20710 | 3042 ft | 228 kts | 60° |
| 2026-05-04 09:23 | -34.19079 | 151.22648 | 3006 ft | 244 kts | 93° |
| 2026-05-04 09:23 | -34.19730 | 151.24556 | 3005 ft | 252 kts | 126° |
| 2026-05-04 09:25 | -34.22468 | 151.33985 | 3002 ft | 217 kts | 21° |
| 2026-05-04 09:25 | -34.21026 | 151.34412 | 3002 ft | 209 kts | 355° |
| 2026-05-04 09:26 | -34.19636 | 151.33999 | 3004 ft | 207 kts | 331° |
| 2026-05-04 09:26 | -34.18577 | 151.32845 | 3005 ft | 210 kts | 305° |
| 2026-05-04 09:26 | -34.18081 | 151.31190 | 3006 ft | 218 kts | 283° |
| 2026-05-04 09:26 | -34.17880 | 151.29368 | 3006 ft | 219 kts | 282° |
| 2026-05-04 09:27 | -34.17677 | 151.27517 | 3004 ft | 219 kts | 283° |
| 2026-05-04 09:27 | -34.17340 | 151.25774 | 3002 ft | 214 kts | 298° |
| 2026-05-04 09:27 | -34.16465 | 151.24366 | 3004 ft | 209 kts | 323° |
| 2026-05-04 09:27 | -34.15169 | 151.23619 | 3006 ft | 208 kts | 343° |
| 2026-05-04 09:28 | -34.13772 | 151.23148 | 3006 ft | 209 kts | 344° |
| 2026-05-04 09:28 | -34.12371 | 151.22681 | 3002 ft | 209 kts | 344° |
| 2026-05-04 09:28 | -34.10973 | 151.22216 | 3005 ft | 209 kts | 344° |
| 2026-05-04 09:28 | -34.09572 | 151.21741 | 2786 ft | 209 kts | 342° |
| 2026-05-04 09:29 | -34.08193 | 151.21206 | 2384 ft | 203 kts | 345° |
| 2026-05-04 09:29 | -34.06874 | 151.20800 | 2105 ft | 189 kts | 347° |
| 2026-05-04 09:29 | -34.05641 | 151.20465 | 1867 ft | 173 kts | 349° |
| 2026-05-04 09:29 | -34.04529 | 151.20172 | 1654 ft | 156 kts | 350° |
| 2026-05-04 09:30 | -34.03512 | 151.19907 | 1435 ft | 143 kts | 349° |
| 2026-05-04 09:30 | -34.02568 | 151.19661 | 1260 ft | 135 kts | 350° |
| 2026-05-04 09:30 | -34.01654 | 151.19417 | 1065 ft | 133 kts | 349° |
| 2026-05-04 09:30 | -34.00746 | 151.19159 | 847 ft | 132 kts | 351° |
| 2026-05-04 09:31 | -33.99844 | 151.18919 | 753 ft | 131 kts | 352° |
| 2026-05-04 09:31 | -33.98953 | 151.18697 | 548 ft | 131 kts | 352° |
| 2026-05-04 09:31 | -33.98059 | 151.18468 | 384 ft | 132 kts | 353° |
| 2026-05-04 09:31 | -33.97161 | 151.18247 | 243 ft | 133 kts | 352° |
| 2026-05-04 09:32 | -33.96280 | 151.18020 | 70 ft | 130 kts | 353° |
| 2026-05-04 09:32 | -33.95453 | 151.17813 | 30 ft | 104 kts | 348° |
| 2026-05-04 09:34 | -33.94249 | 151.17709 | 30 ft | 8 kts | 346° |
| 2026-05-04 09:34 | -33.94185 | 151.17690 | 29 ft | 9 kts | 346° |
| 2026-05-04 09:34 | -33.94168 | 151.17684 | 29 ft | 3 kts | 346° |
| 2026-05-04 09:34 | -33.94132 | 151.17674 | 29 ft | 9 kts | 346° |
| 2026-05-04 09:35 | -33.94044 | 151.17649 | 28 ft | 17 kts | 347° |
| 2026-05-04 09:35 | -33.93926 | 151.17618 | 29 ft | 17 kts | 348° |
| 2026-05-04 09:35 | -33.93815 | 151.17591 | 29 ft | 13 kts | 347° |
| 2026-05-04 09:35 | -33.93720 | 151.17565 | 29 ft | 11 kts | 347° |
| 2026-05-04 09:37 | -33.93560 | 151.17688 | 30 ft | 0 kts | 101° |